Time;durP1;ratioP1;P1;durP2;ratioP2;P2;SDS_P1;SDS_P2;PMS_P1;PMS_P2;Temp;Humidity;BMP_temperature;BMP_pressure;BME280_temperature;BME280_humidity;BME280_pressure;Samples;Min_cycle;Max_cycle;Signal;HPM_P1;HPM_P2
2022/01/05 00:02:04;;;;;;;29.90;14.27;;;10.60;84.20;;;;;;5009605;28;20571;-77
2022/01/05 00:04:33;;;;;;;25.30;14.50;;;10.50;84.10;;;;;;5017120;28;20573;-77
2022/01/05 00:07:01;;;;;;;23.17;13.57;;;10.50;83.90;;;;;;5014127;28;20191;-78
2022/01/05 00:09:30;;;;;;;26.50;14.37;;;10.50;83.80;;;;;;5018760;28;20224;-78
2022/01/05 00:11:59;;;;;;;24.10;13.73;;;10.50;83.70;;;;;;5020922;28;20278;-78
2022/01/05 00:14:27;;;;;;;23.50;13.37;;;10.50;83.60;;;;;;5016875;28;20270;-78
2022/01/05 00:16:57;;;;;;;25.60;13.70;;;10.40;83.40;;;;;;5007045;28;20184;-78
2022/01/05 00:19:25;;;;;;;23.27;13.57;;;10.40;83.30;;;;;;5013456;28;20200;-78
2022/01/05 00:21:53;;;;;;;25.90;13.87;;;10.40;83.30;;;;;;5009927;28;20850;-78
2022/01/05 00:24:22;;;;;;;21.10;12.37;;;10.40;83.40;;;;;;5007435;28;20841;-79
2022/01/05 00:26:50;;;;;;;24.70;13.30;;;10.40;83.30;;;;;;5022705;28;20196;-78
2022/01/05 00:29:19;;;;;;;22.60;12.90;;;10.40;83.20;;;;;;5006184;28;20216;-78
2022/01/05 00:31:47;;;;;;;20.33;12.07;;;10.30;83.20;;;;;;5005780;28;20842;-78
2022/01/05 00:34:17;;;;;;;23.60;12.70;;;10.30;83.20;;;;;;5020872;28;20232;-77
2022/01/05 00:36:45;;;;;;;18.60;11.33;;;10.30;83.30;;;;;;5011845;28;20207;-77
2022/01/05 00:39:13;;;;;;;31.20;12.00;;;10.30;83.40;;;;;;5008415;28;20196;-77
2022/01/05 00:41:42;;;;;;;21.53;11.93;;;10.40;83.50;;;;;;5004007;28;20192;-78
2022/01/05 00:44:10;;;;;;;21.13;12.13;;;10.40;83.50;;;;;;5017242;28;20192;-77
2022/01/05 00:46:38;;;;;;;24.93;12.47;;;10.40;83.30;;;;;;5017204;28;20191;-78
2022/01/05 00:49:07;;;;;;;23.07;11.60;;;10.40;83.20;;;;;;5010764;28;20234;-78
2022/01/05 00:51:36;;;;;;;19.43;11.23;;;10.40;83.10;;;;;;5010503;28;20200;-78
2022/01/05 00:54:05;;;;;;;22.33;12.57;;;10.30;83.10;;;;;;5006559;28;20196;-78
2022/01/05 00:56:33;;;;;;;20.80;10.57;;;10.40;83.10;;;;;;5005697;28;20191;-78
2022/01/05 00:59:02;;;;;;;26.90;11.77;;;10.30;83.20;;;;;;5017219;28;20188;-79
2022/01/05 01:01:30;;;;;;;21.53;12.03;;;10.30;83.10;;;;;;5021265;28;20195;-80
2022/01/05 01:03:59;;;;;;;22.40;11.80;;;10.30;83.20;;;;;;5017232;28;20238;-78
2022/01/05 01:06:27;;;;;;;23.03;11.23;;;10.30;83.20;;;;;;5017874;28;20206;-78
2022/01/05 01:08:57;;;;;;;17.83;11.33;;;10.20;83.20;;;;;;5012807;28;20203;-78
2022/01/05 01:11:25;;;;;;;24.70;12.63;;;10.30;83.40;;;;;;5015417;28;20192;-80
2022/01/05 01:13:54;;;;;;;20.33;12.30;;;10.20;83.30;;;;;;5019626;28;20199;-79
2022/01/05 01:16:22;;;;;;;22.50;12.70;;;10.30;83.30;;;;;;5022976;28;20192;-78
2022/01/05 01:18:51;;;;;;;26.27;12.47;;;10.20;83.30;;;;;;5019222;28;20221;-78
2022/01/05 01:21:20;;;;;;;24.90;12.03;;;10.20;83.30;;;;;;5019239;28;20787;-78
2022/01/05 01:23:55;;;;;;;23.87;12.60;;;10.20;83.30;;;;;;5020957;28;20203;-78
2022/01/05 01:26:27;;;;;;;21.30;12.43;;;10.20;83.40;;;;;;5017674;28;20187;-78
2022/01/05 01:28:56;;;;;;;20.67;11.53;;;10.20;83.50;;;;;;5016457;28;20198;-78
2022/01/05 01:31:24;;;;;;;22.37;11.67;;;10.10;84.30;;;;;;5009670;28;20219;-78
2022/01/05 01:33:53;;;;;;;21.07;11.27;;;10.20;83.60;;;;;;5012392;28;20711;-78
2022/01/05 01:36:21;;;;;;;23.90;12.13;;;10.20;83.60;;;;;;5004326;28;20196;-78
2022/01/05 01:38:50;;;;;;;20.40;10.40;;;10.20;83.60;;;;;;5007467;28;20406;-78
2022/01/05 01:41:18;;;;;;;21.10;11.90;;;10.20;83.60;;;;;;5008583;28;20195;-78
2022/01/05 01:43:48;;;;;;;22.97;12.10;;;10.20;83.80;;;;;;5014413;28;20195;-77
2022/01/05 01:46:16;;;;;;;19.47;11.27;;;10.20;83.60;;;;;;5018894;28;20199;-78
2022/01/05 01:48:45;;;;;;;19.07;10.73;;;10.20;83.60;;;;;;5007738;28;20197;-78
2022/01/05 01:51:14;;;;;;;20.27;11.50;;;10.10;83.50;;;;;;5004197;28;20231;-78
2022/01/05 01:53:42;;;;;;;20.37;10.67;;;10.20;83.60;;;;;;5009008;28;20943;-78
2022/01/05 01:56:12;;;;;;;21.47;11.37;;;10.20;83.60;;;;;;5022719;28;20207;-78
2022/01/05 01:58:40;;;;;;;25.33;11.13;;;10.20;83.60;;;;;;5019634;28;20205;-78
2022/01/05 02:01:10;;;;;;;22.17;11.27;;;10.10;83.50;;;;;;5011951;28;20214;-79
2022/01/05 02:03:39;;;;;;;17.70;10.80;;;10.10;83.50;;;;;;5010090;28;20192;-79
2022/01/05 02:06:07;;;;;;;19.00;11.10;;;10.10;83.40;;;;;;5014691;28;20885;-78
2022/01/05 02:08:36;;;;;;;19.47;10.40;;;10.10;83.40;;;;;;5020183;28;20330;-77
2022/01/05 02:11:05;;;;;;;22.93;10.77;;;10.10;83.50;;;;;;5023267;28;20215;-78
2022/01/05 02:13:33;;;;;;;18.60;11.63;;;10.00;83.40;;;;;;5017737;28;20214;-78
2022/01/05 02:16:02;;;;;;;22.20;11.73;;;10.00;83.50;;;;;;5008617;28;20195;-78
2022/01/05 02:21:19;;;;;;;23.03;10.97;;;10.00;83.60;;;;;;5018120;28;20204;-78
2022/01/05 02:23:48;;;;;;;22.00;11.70;;;10.00;83.70;;;;;;5011291;28;20196;-77
2022/01/05 02:26:17;;;;;;;25.20;11.73;;;10.00;83.80;;;;;;5019162;28;20192;-78
2022/01/05 02:28:45;;;;;;;20.27;11.53;;;9.90;83.70;;;;;;5009147;28;20207;-77
2022/01/05 02:31:14;;;;;;;20.97;11.90;;;9.90;83.70;;;;;;5009096;28;20215;-78
2022/01/05 02:33:42;;;;;;;19.93;10.60;;;9.90;83.70;;;;;;4961574;28;1267950;-78
2022/01/05 02:36:17;;;;;;;18.70;11.27;;;9.90;83.60;;;;;;5017346;28;20260;-78
2022/01/05 02:38:48;;;;;;;19.37;11.20;;;9.90;83.60;;;;;;5013242;28;20280;-78
2022/01/05 02:41:17;;;;;;;21.60;11.10;;;9.80;83.40;;;;;;5015103;28;20206;-78
2022/01/05 02:43:47;;;;;;;22.20;11.73;;;9.80;83.40;;;;;;5022963;28;20191;-78
2022/01/05 02:46:17;;;;;;;20.40;11.87;;;9.80;83.50;;;;;;5012566;28;20204;-78
2022/01/05 02:48:47;;;;;;;23.07;12.10;;;9.70;83.50;;;;;;5003485;28;20191;-78
2022/01/05 02:51:16;;;;;;;20.57;12.23;;;9.70;83.70;;;;;;5009388;28;20310;-77
2022/01/05 02:53:44;;;;;;;26.80;12.77;;;9.70;83.80;;;;;;5012578;28;20195;-78
2022/01/05 02:56:14;;;;;;;23.60;12.47;;;9.70;83.90;;;;;;5015051;28;20207;-78
2022/01/05 02:58:42;;;;;;;26.03;12.43;;;9.70;84.00;;;;;;5016783;28;20202;-78
2022/01/05 03:01:11;;;;;;;22.60;11.37;;;9.60;84.10;;;;;;5017376;28;20392;-78
2022/01/05 03:03:39;;;;;;;20.03;11.63;;;9.60;84.20;;;;;;5008144;28;20200;-77
2022/01/05 03:06:08;;;;;;;24.33;12.50;;;9.60;84.20;;;;;;5020674;28;20202;-78
2022/01/05 03:08:36;;;;;;;22.00;12.00;;;9.50;84.10;;;;;;5015736;28;20192;-78
2022/01/05 03:11:05;;;;;;;22.50;12.23;;;9.50;84.10;;;;;;5022396;28;20212;-79
2022/01/05 03:13:34;;;;;;;22.07;11.80;;;9.50;84.10;;;;;;5011600;28;20247;-78
2022/01/05 03:16:03;;;;;;;23.83;12.07;;;9.40;84.10;;;;;;5012338;28;20203;-78
2022/01/05 03:18:31;;;;;;;21.03;11.83;;;9.40;84.30;;;;;;5013766;28;20237;-78
2022/01/05 03:21:00;;;;;;;20.27;10.97;;;9.30;84.30;;;;;;5014394;28;20238;-78
2022/01/05 03:23:28;;;;;;;21.33;12.37;;;9.30;84.40;;;;;;5016671;28;20920;-80
2022/01/05 03:25:56;;;;;;;20.90;12.03;;;9.30;84.50;;;;;;5011304;28;20196;-78
2022/01/05 03:28:25;;;;;;;19.27;11.00;;;9.20;84.50;;;;;;5013700;28;20203;-78
2022/01/05 03:30:54;;;;;;;17.83;11.27;;;9.20;84.60;;;;;;5005896;28;20212;-78
2022/01/05 03:33:24;;;;;;;23.83;11.97;;;9.20;84.80;;;;;;5014758;28;20750;-78
2022/01/05 03:35:52;;;;;;;21.33;12.33;;;9.10;84.90;;;;;;5003160;28;20195;-78
2022/01/05 03:38:21;;;;;;;24.57;13.03;;;9.10;85.20;;;;;;5007237;28;20199;-79
2022/01/05 03:40:49;;;;;;;23.60;12.20;;;9.00;85.00;;;;;;5018494;28;20196;-77
2022/01/05 03:43:18;;;;;;;21.23;12.47;;;9.00;85.40;;;;;;5013501;28;20204;-78
2022/01/05 03:45:47;;;;;;;22.67;12.10;;;9.00;85.50;;;;;;5020156;28;20202;-78
2022/01/05 03:48:19;;;;;;;24.77;13.00;;;9.00;85.80;;;;;;5012308;28;20242;-78
2022/01/05 03:50:48;;;;;;;25.80;12.23;;;9.00;85.80;;;;;;5007641;28;20254;-78
2022/01/05 03:53:17;;;;;;;25.07;12.63;;;8.90;86.00;;;;;;5009101;28;20195;-78
2022/01/05 03:55:47;;;;;;;23.27;12.50;;;8.90;86.10;;;;;;5016737;28;20216;-79
2022/01/05 03:58:16;;;;;;;21.77;11.97;;;8.90;86.30;;;;;;5004550;28;20229;-77
2022/01/05 04:00:47;;;;;;;20.77;12.40;;;8.90;86.50;;;;;;5006768;28;20211;-78
2022/01/05 04:03:17;;;;;;;25.93;13.27;;;8.90;86.70;;;;;;5017830;28;20210;-78
2022/01/05 04:05:46;;;;;;;22.57;13.13;;;8.90;86.70;;;;;;5004930;28;20196;-77
2022/01/05 04:08:14;;;;;;;25.43;13.23;;;8.80;86.70;;;;;;5013810;28;20599;-78
2022/01/05 04:10:43;;;;;;;23.07;12.73;;;8.80;86.70;;;;;;5004300;28;20650;-78
2022/01/05 04:13:12;;;;;;;19.93;11.97;;;8.80;86.70;;;;;;5015005;28;20202;-78
2022/01/05 04:15:40;;;;;;;25.33;11.93;;;8.80;86.70;;;;;;5009404;28;20214;-77
2022/01/05 04:18:09;;;;;;;22.47;12.23;;;8.80;86.70;;;;;;5003945;28;20199;-78
2022/01/05 04:20:38;;;;;;;23.87;12.07;;;8.80;86.70;;;;;;5004789;28;20199;-77
2022/01/05 04:23:07;;;;;;;20.47;11.77;;;8.70;86.60;;;;;;5014961;28;20550;-78
2022/01/05 04:25:35;;;;;;;20.80;12.27;;;8.80;86.60;;;;;;5013123;28;20199;-78
2022/01/05 04:28:05;;;;;;;21.67;12.37;;;8.70;86.60;;;;;;5008573;28;20694;-78
2022/01/05 04:30:33;;;;;;;30.40;13.53;;;8.70;86.60;;;;;;5010966;28;20200;-78
2022/01/05 04:33:02;;;;;;;21.93;13.10;;;8.70;86.70;;;;;;5012942;28;20245;-78
2022/01/05 04:35:52;;;;;;;23.10;12.57;;;8.70;86.90;;;;;;5003180;28;20254;-78
2022/01/05 04:38:20;;;;;;;23.30;12.70;;;8.70;86.90;;;;;;5017098;28;20206;-78
2022/01/05 04:40:48;;;;;;;22.50;13.03;;;8.60;86.90;;;;;;5018574;28;20192;-78
2022/01/05 04:43:16;;;;;;;23.00;13.43;;;8.60;87.10;;;;;;5013137;28;20238;-78
2022/01/05 04:45:45;;;;;;;31.57;13.93;;;8.60;87.20;;;;;;5020574;28;20203;-77
2022/01/05 04:48:13;;;;;;;28.07;13.97;;;8.60;87.60;;;;;;5010941;28;20199;-77
2022/01/05 04:50:41;;;;;;;30.20;13.83;;;8.50;87.70;;;;;;5017023;28;20203;-78
2022/01/05 04:53:13;;;;;;;25.93;13.67;;;8.50;87.60;;;;;;5009126;28;20227;-79
2022/01/05 04:55:42;;;;;;;25.17;13.87;;;8.50;87.90;;;;;;5013646;28;20701;-79
2022/01/05 04:58:10;;;;;;;27.00;13.93;;;8.40;88.30;;;;;;5010545;28;20210;-78
2022/01/05 05:00:39;;;;;;;22.47;13.50;;;8.40;88.60;;;;;;5015846;28;20195;-78
2022/01/05 05:03:07;;;;;;;23.47;12.60;;;8.30;88.70;;;;;;5005719;28;20210;-78
2022/01/05 05:05:36;;;;;;;24.47;13.20;;;8.30;88.80;;;;;;5009418;28;20192;-79
2022/01/05 05:08:04;;;;;;;22.87;12.97;;;8.30;88.90;;;;;;5006377;28;20198;-78
2022/01/05 05:10:34;;;;;;;23.43;13.60;;;8.30;89.20;;;;;;5007771;28;20199;-78
2022/01/05 05:13:08;;;;;;;25.73;14.17;;;8.30;89.40;;;;;;5012298;28;20234;-78
2022/01/05 05:15:36;;;;;;;27.17;13.13;;;8.20;89.60;;;;;;5018057;28;20190;-79
2022/01/05 05:18:05;;;;;;;30.43;13.87;;;8.20;89.70;;;;;;5014605;28;20196;-79
2022/01/05 05:20:34;;;;;;;26.40;13.67;;;8.20;89.80;;;;;;5009862;28;20663;-78
2022/01/05 05:23:03;;;;;;;25.37;12.30;;;8.10;89.70;;;;;;5010348;28;20198;-79
2022/01/05 05:25:31;;;;;;;24.80;13.30;;;8.10;89.70;;;;;;5013710;28;20195;-78
2022/01/05 05:28:01;;;;;;;22.60;13.23;;;8.10;89.70;;;;;;5012438;28;20286;-79
2022/01/05 05:30:34;;;;;;;23.93;13.17;;;8.00;89.80;;;;;;5002142;28;20184;-79
2022/01/05 05:33:03;;;;;;;21.83;12.37;;;8.00;89.80;;;;;;5002698;28;20227;-78
2022/01/05 05:35:31;;;;;;;25.17;13.40;;;7.90;89.80;;;;;;4995455;28;20685;-79
2022/01/05 05:38:00;;;;;;;27.07;14.13;;;7.90;89.90;;;;;;4982259;28;20199;-79
2022/01/05 05:40:28;;;;;;;24.03;12.27;;;7.90;90.00;;;;;;4987215;28;20191;-79
2022/01/05 05:42:56;;;;;;;24.97;13.23;;;7.80;90.00;;;;;;4988740;28;20201;-78
2022/01/05 05:45:26;;;;;;;25.63;13.70;;;7.80;90.00;;;;;;4987992;28;20196;-78
2022/01/05 05:47:55;;;;;;;25.77;13.93;;;7.80;90.10;;;;;;4982527;28;20263;-77
2022/01/05 05:50:24;;;;;;;25.03;13.53;;;7.80;90.10;;;;;;4995659;28;20207;-78
2022/01/05 05:52:52;;;;;;;25.87;13.57;;;7.70;90.20;;;;;;4990061;28;20239;-78
2022/01/05 05:55:20;;;;;;;24.00;13.93;;;7.70;90.20;;;;;;4994832;28;20563;-78
2022/01/05 05:57:48;;;;;;;29.17;14.80;;;7.70;90.20;;;;;;4987012;28;20207;-77
2022/01/05 06:00:17;;;;;;;26.03;13.60;;;7.70;90.20;;;;;;4986101;28;20212;-78
2022/01/05 06:02:48;;;;;;;24.07;13.53;;;7.70;90.10;;;;;;4998832;28;20711;-78
2022/01/05 06:05:16;;;;;;;21.87;13.40;;;7.70;90.20;;;;;;4997868;28;20184;-77
2022/01/05 06:07:45;;;;;;;23.93;13.53;;;7.70;90.20;;;;;;4992304;28;20206;-78
2022/01/05 06:10:13;;;;;;;23.13;13.13;;;7.70;90.30;;;;;;4987489;28;20204;-79
2022/01/05 06:12:41;;;;;;;27.87;14.27;;;7.70;90.30;;;;;;4991974;28;20224;-78
2022/01/05 06:15:10;;;;;;;23.30;13.53;;;7.70;90.50;;;;;;4997505;28;20956;-78
2022/01/05 06:17:39;;;;;;;28.13;14.47;;;7.70;90.50;;;;;;4991495;28;20215;-79
2022/01/05 06:20:10;;;;;;;24.27;14.67;;;7.70;90.50;;;;;;4989561;28;20199;-78
2022/01/05 06:22:40;;;;;;;28.57;15.40;;;7.70;90.60;;;;;;4995590;28;20206;-78
2022/01/05 06:25:11;;;;;;;25.30;13.87;;;7.70;90.70;;;;;;4986478;28;20211;-78
2022/01/05 06:27:39;;;;;;;27.13;15.33;;;7.70;90.70;;;;;;4988450;28;20214;-81
2022/01/05 06:30:09;;;;;;;28.57;15.77;;;7.70;90.70;;;;;;5000290;28;20197;-78
2022/01/05 06:32:43;;;;;;;25.67;15.13;;;7.70;90.80;;;;;;4987947;28;20226;-78
2022/01/05 06:35:13;;;;;;;25.63;13.77;;;7.70;90.80;;;;;;5013765;28;20223;-78
2022/01/05 06:37:42;;;;;;;22.17;13.23;;;7.70;90.90;;;;;;5023036;28;20183;-80
2022/01/05 06:40:12;;;;;;;23.83;13.93;;;7.80;91.00;;;;;;5008516;28;20196;-80
2022/01/05 06:42:41;;;;;;;26.57;14.00;;;7.80;90.90;;;;;;5013606;28;20184;-79
2022/01/05 06:45:10;;;;;;;24.80;13.30;;;7.80;90.90;;;;;;5008607;28;20196;-80
2022/01/05 06:47:39;;;;;;;24.00;14.43;;;7.90;90.90;;;;;;5005616;28;20199;-80
2022/01/05 06:50:08;;;;;;;26.33;13.57;;;7.90;90.90;;;;;;5007914;28;20208;-79
2022/01/05 06:52:39;;;;;;;24.30;13.47;;;8.00;90.80;;;;;;5005922;28;20219;-78
2022/01/05 06:55:09;;;;;;;25.40;14.63;;;8.10;90.80;;;;;;5014965;28;20195;-78
2022/01/05 06:57:39;;;;;;;20.13;13.07;;;8.10;90.70;;;;;;5009984;28;20195;-77
2022/01/05 07:00:09;;;;;;;25.80;13.90;;;8.10;90.60;;;;;;5008448;28;20220;-77
2022/01/05 07:02:38;;;;;;;23.10;12.53;;;8.20;90.70;;;;;;5015701;28;20196;-78
2022/01/05 07:05:08;;;;;;;27.63;13.13;;;8.20;90.70;;;;;;5015262;28;20200;-77
2022/01/05 07:07:38;;;;;;;22.33;12.73;;;8.30;90.70;;;;;;5013023;28;20207;-77
2022/01/05 07:10:08;;;;;;;22.40;12.73;;;8.40;90.70;;;;;;5017344;28;20199;-78
2022/01/05 07:12:37;;;;;;;23.03;11.80;;;8.50;90.70;;;;;;5017146;28;20636;-77
2022/01/05 07:15:06;;;;;;;23.50;11.43;;;8.50;90.80;;;;;;5011445;28;20271;-78
2022/01/05 07:17:35;;;;;;;22.60;10.73;;;8.70;90.90;;;;;;5007491;28;20196;-78
2022/01/05 07:20:06;;;;;;;25.03;12.10;;;8.80;91.00;;;;;;5004056;28;20188;-77
2022/01/05 07:22:34;;;;;;;20.43;11.77;;;8.90;90.90;;;;;;5011331;28;20196;-78
2022/01/05 07:25:05;;;;;;;21.57;11.80;;;9.00;90.80;;;;;;5014209;28;20200;-77
2022/01/05 07:27:33;;;;;;;18.37;10.77;;;9.10;90.70;;;;;;5017169;28;20188;-77
2022/01/05 07:30:01;;;;;;;17.53;11.00;;;9.20;90.60;;;;;;5015096;28;20195;-76
2022/01/05 07:32:30;;;;;;;19.97;11.67;;;9.30;90.50;;;;;;5021311;28;20188;-78
2022/01/05 07:34:58;;;;;;;18.33;11.83;;;9.40;90.40;;;;;;5018843;28;20217;-76
2022/01/05 07:37:27;;;;;;;21.13;11.77;;;9.40;90.20;;;;;;5023203;28;20192;-77
2022/01/05 07:39:55;;;;;;;21.90;11.37;;;9.50;90.20;;;;;;5014551;28;20199;-77
2022/01/05 07:42:27;;;;;;;21.07;11.70;;;9.60;90.20;;;;;;5008952;28;20188;-77
2022/01/05 07:44:57;;;;;;;21.90;11.60;;;9.70;90.10;;;;;;5006312;28;20211;-77
2022/01/05 07:47:25;;;;;;;18.97;10.77;;;9.80;90.00;;;;;;5017319;28;20202;-77
2022/01/05 07:49:53;;;;;;;21.23;10.63;;;9.80;90.00;;;;;;5010846;28;20754;-76
2022/01/05 07:52:22;;;;;;;21.97;10.43;;;9.90;89.90;;;;;;5006626;28;20193;-77
2022/01/05 07:54:52;;;;;;;19.27;10.50;;;10.00;89.80;;;;;;5016472;28;20222;-78
2022/01/05 07:57:20;;;;;;;26.20;12.17;;;10.10;89.50;;;;;;5007298;28;20283;-75
2022/01/05 07:59:50;;;;;;;22.00;10.57;;;10.20;89.40;;;;;;5005880;28;20243;-77
2022/01/05 08:02:18;;;;;;;19.23;10.60;;;10.20;89.20;;;;;;5005107;28;20192;-77
2022/01/05 08:04:49;;;;;;;18.67;10.93;;;10.30;89.20;;;;;;5013889;28;20196;-76
2022/01/05 08:07:17;;;;;;;19.13;10.07;;;10.50;89.10;;;;;;5020226;28;20274;-77
2022/01/05 08:09:46;;;;;;;19.63;10.60;;;10.60;88.80;;;;;;5015611;28;20200;-76
2022/01/05 08:12:14;;;;;;;17.57;10.53;;;10.70;88.60;;;;;;5009318;28;20192;-77
2022/01/05 08:14:42;;;;;;;19.73;10.90;;;10.70;88.20;;;;;;5017175;28;20219;-76
2022/01/05 08:17:12;;;;;;;17.67;10.53;;;10.80;87.70;;;;;;5014575;28;20195;-76
2022/01/05 08:19:41;;;;;;;20.57;10.63;;;10.90;87.60;;;;;;5013662;28;20192;-78
2022/01/05 08:22:09;;;;;;;21.80;11.17;;;10.90;86.90;;;;;;5013214;28;20231;-76
2022/01/05 08:24:38;;;;;;;21.17;10.97;;;10.90;86.70;;;;;;5013964;28;20210;-76
2022/01/05 08:27:06;;;;;;;17.00;10.17;;;11.00;86.50;;;;;;5016443;28;20661;-77
2022/01/05 08:29:35;;;;;;;18.90;10.50;;;11.00;86.60;;;;;;5019257;28;20674;-76
2022/01/05 08:32:04;;;;;;;18.27;10.43;;;11.10;86.50;;;;;;5016324;28;20681;-76
2022/01/05 08:34:34;;;;;;;17.67;10.30;;;11.20;86.50;;;;;;5008768;28;20215;-76
2022/01/05 08:37:03;;;;;;;23.63;10.40;;;11.20;86.20;;;;;;5020463;28;20180;-76
2022/01/05 08:39:31;;;;;;;20.27;9.73;;;11.30;86.20;;;;;;5012715;28;20188;-78
2022/01/05 08:42:00;;;;;;;16.30;10.37;;;11.40;86.20;;;;;;5016662;28;20184;-79
2022/01/05 08:44:28;;;;;;;18.10;10.43;;;11.50;85.80;;;;;;5014964;28;20196;-77
2022/01/05 08:46:56;;;;;;;19.10;9.90;;;11.50;85.50;;;;;;5020677;28;20195;-76
2022/01/05 08:49:25;;;;;;;17.50;9.53;;;11.60;85.40;;;;;;5011038;28;20196;-76
2022/01/05 08:51:54;;;;;;;19.43;10.63;;;11.70;85.40;;;;;;5009093;28;20184;-76
2022/01/05 08:54:23;;;;;;;16.97;9.60;;;11.70;85.40;;;;;;5012795;28;20227;-75
2022/01/05 08:56:51;;;;;;;18.37;10.23;;;11.80;85.10;;;;;;5020987;28;20195;-77
2022/01/05 08:59:24;;;;;;;19.40;11.00;;;11.80;85.10;;;;;;5024262;28;20184;-76
2022/01/05 09:01:52;;;;;;;18.67;9.73;;;11.90;85.10;;;;;;5021846;28;20720;-77
2022/01/05 09:04:21;;;;;;;21.03;10.33;;;12.00;85.40;;;;;;5021416;28;20199;-77
2022/01/05 09:06:50;;;;;;;18.63;10.20;;;12.00;85.20;;;;;;5021825;28;20609;-77
2022/01/05 09:09:20;;;;;;;19.93;9.83;;;12.10;85.10;;;;;;5021814;28;20219;-76
2022/01/05 09:11:48;;;;;;;17.37;9.83;;;12.10;84.90;;;;;;5022727;28;20198;-76
2022/01/05 09:14:16;;;;;;;14.87;9.00;;;12.20;84.40;;;;;;5021383;28;20224;-77
2022/01/05 09:16:45;;;;;;;18.83;9.50;;;12.20;84.10;;;;;;5022310;28;20190;-77
2022/01/05 09:19:13;;;;;;;19.13;9.80;;;12.20;83.90;;;;;;5023607;28;20191;-79
2022/01/05 09:21:42;;;;;;;19.90;9.33;;;12.30;83.80;;;;;;5021854;28;20200;-77
2022/01/05 09:24:10;;;;;;;18.07;9.90;;;12.30;83.20;;;;;;5020196;28;20286;-77
2022/01/05 09:26:40;;;;;;;15.17;9.20;;;12.40;83.30;;;;;;5022808;28;20677;-77
2022/01/05 09:29:08;;;;;;;15.57;9.50;;;12.50;83.50;;;;;;5014303;28;20211;-77
2022/01/05 09:31:37;;;;;;;21.80;11.40;;;12.50;83.60;;;;;;5019985;28;20199;-77
2022/01/05 09:34:06;;;;;;;16.20;9.17;;;12.60;83.00;;;;;;5027924;28;20231;-78
2022/01/05 09:36:39;;;;;;;20.50;10.03;;;12.60;82.70;;;;;;5028163;28;20198;-77
2022/01/05 09:41:59;;;;;;;18.20;10.10;;;12.70;82.40;;;;;;5026815;28;20187;-77
2022/01/05 09:44:30;;;;;;;16.40;9.83;;;12.80;82.50;;;;;;5027582;28;20183;-78
2022/01/05 09:47:23;;;;;;;19.57;9.87;;;12.80;82.10;;;;;;5028449;28;20176;-76
2022/01/05 09:49:54;;;;;;;20.80;10.90;;;12.90;82.30;;;;;;5027411;28;20187;-77
2022/01/05 09:52:24;;;;;;;17.27;9.20;;;12.90;81.90;;;;;;5024273;28;20188;-76
2022/01/05 09:54:53;;;;;;;19.10;9.50;;;13.00;82.00;;;;;;5007796;28;20929;-76
2022/01/05 09:57:24;;;;;;;15.57;8.07;;;13.10;82.10;;;;;;5025299;28;20561;-77
2022/01/05 09:59:53;;;;;;;20.17;8.47;;;13.20;81.50;;;;;;5026596;28;20747;-77
2022/01/05 10:02:21;;;;;;;16.97;9.23;;;13.20;81.10;;;;;;5024778;28;20203;-76
2022/01/05 10:04:50;;;;;;;20.67;9.63;;;13.30;80.90;;;;;;5018326;28;20195;-77
2022/01/05 10:07:19;;;;;;;19.03;8.87;;;13.40;81.10;;;;;;5020114;28;20195;-77
2022/01/05 10:09:49;;;;;;;16.87;9.37;;;13.50;80.80;;;;;;5026577;28;20207;-77
2022/01/05 10:12:18;;;;;;;19.07;9.43;;;13.50;80.50;;;;;;5026960;28;20585;-78
2022/01/05 10:14:49;;;;;;;19.60;10.30;;;13.60;80.40;;;;;;5024403;28;20219;-77
2022/01/05 10:17:24;;;;;;;17.03;8.97;;;13.70;80.40;;;;;;5026116;28;20199;-77
2022/01/05 10:19:56;;;;;;;18.10;10.03;;;13.80;80.20;;;;;;5013566;28;20207;-77
2022/01/05 10:22:33;;;;;;;19.53;9.53;;;13.80;80.00;;;;;;5006124;28;20643;-77
2022/01/05 10:25:04;;;;;;;23.77;10.53;;;13.90;80.10;;;;;;5007067;28;20275;-77
2022/01/05 10:27:33;;;;;;;23.23;10.07;;;14.00;80.30;;;;;;5007839;28;20180;-76
2022/01/05 10:30:07;;;;;;;18.50;9.70;;;14.00;80.00;;;;;;5006671;28;20196;-78
2022/01/05 10:32:36;;;;;;;18.37;9.20;;;14.10;79.90;;;;;;5005443;28;20750;-77
2022/01/05 10:35:10;;;;;;;17.27;9.20;;;14.20;80.00;;;;;;5006302;28;20240;-78
2022/01/05 10:37:40;;;;;;;18.43;9.63;;;14.20;80.90;;;;;;5012013;28;20245;-78
2022/01/05 10:40:13;;;;;;;17.50;8.80;;;14.30;80.30;;;;;;5016164;28;20188;-79
2022/01/05 10:42:43;;;;;;;14.47;8.17;;;14.40;80.30;;;;;;5019013;28;20229;-78
2022/01/05 10:45:15;;;;;;;15.00;8.13;;;14.40;79.90;;;;;;5009597;28;20200;-78
2022/01/05 10:47:44;;;;;;;22.43;9.83;;;14.50;79.50;;;;;;5010504;28;20198;-78
2022/01/05 10:50:20;;;;;;;15.47;7.83;;;14.50;79.50;;;;;;5006199;28;20223;-78
2022/01/05 10:52:57;;;;;;;22.27;9.80;;;14.60;79.20;;;;;;5015952;28;20195;-78
2022/01/05 10:55:27;;;;;;;15.47;8.47;;;14.60;79.30;;;;;;5019147;28;20204;-78
2022/01/05 10:58:00;;;;;;;15.67;8.47;;;14.70;78.70;;;;;;5011905;28;20193;-79
2022/01/05 11:00:39;;;;;;;15.00;8.47;;;14.70;78.10;;;;;;5005950;28;20199;-78
2022/01/05 11:03:26;;;;;;;14.73;8.53;;;14.80;78.30;;;;;;5006352;28;20877;-79
2022/01/05 11:06:02;;;;;;;16.17;8.10;;;14.80;78.40;;;;;;5010699;28;20842;-78
2022/01/05 11:08:32;;;;;;;12.30;7.57;;;14.90;78.60;;;;;;5015049;28;20185;-78
2022/01/05 11:11:01;;;;;;;12.77;7.07;;;15.00;78.20;;;;;;5005648;28;20195;-78
2022/01/05 11:13:29;;;;;;;14.33;7.47;;;15.00;77.80;;;;;;5012796;28;21581;-79
2022/01/05 11:15:59;;;;;;;16.10;7.10;;;15.10;77.30;;;;;;5013273;28;20215;-80
2022/01/05 11:18:31;;;;;;;15.00;6.63;;;15.10;76.90;;;;;;5023741;28;20194;-80
2022/01/05 11:21:01;;;;;;;15.97;7.40;;;15.20;76.30;;;;;;5015656;28;20184;-78
2022/01/05 11:23:31;;;;;;;14.53;7.87;;;15.20;76.30;;;;;;5020616;28;20202;-80
2022/01/05 11:26:02;;;;;;;19.80;7.87;;;15.30;76.50;;;;;;5018013;28;20661;-80
2022/01/05 11:28:31;;;;;;;12.97;7.30;;;15.40;75.80;;;;;;5021144;28;20211;-80
2022/01/05 11:31:01;;;;;;;17.20;7.73;;;15.50;76.10;;;;;;5021876;28;20195;-79
2022/01/05 11:33:30;;;;;;;14.37;7.77;;;15.60;76.10;;;;;;5008788;28;20219;-80
2022/01/05 11:35:58;;;;;;;13.87;7.00;;;15.60;74.80;;;;;;5018744;28;20224;-80
2022/01/05 11:38:27;;;;;;;15.67;6.87;;;15.60;75.10;;;;;;5018418;28;20188;-81
2022/01/05 11:40:56;;;;;;;13.80;7.03;;;15.70;74.60;;;;;;5024627;28;20191;-80
2022/01/05 11:43:28;;;;;;;10.70;6.77;;;15.70;74.30;;;;;;5014212;28;20704;-79
2022/01/05 11:45:57;;;;;;;13.73;7.00;;;15.80;74.20;;;;;;5012947;28;20279;-80
2022/01/05 11:48:29;;;;;;;12.50;6.80;;;15.80;74.40;;;;;;5014681;28;20283;-79
2022/01/05 11:51:01;;;;;;;14.47;6.70;;;15.90;74.80;;;;;;5023149;28;20194;-79
2022/01/05 11:53:38;;;;;;;13.43;7.50;;;16.00;74.90;;;;;;5011791;28;20209;-81
2022/01/05 11:56:13;;;;;;;14.20;7.60;;;16.00;74.70;;;;;;5011640;28;20208;-78
2022/01/05 11:58:54;;;;;;;11.63;7.47;;;16.10;75.00;;;;;;5014193;28;20190;-79
2022/01/05 12:01:34;;;;;;;13.27;7.13;;;16.20;75.00;;;;;;5019054;28;20199;-78
2022/01/05 12:04:22;;;;;;;10.67;6.60;;;16.20;74.60;;;;;;5018697;28;20271;-79
2022/01/05 12:07:09;;;;;;;15.33;7.10;;;16.30;74.00;;;;;;5009177;28;20669;-78
2022/01/05 12:09:41;;;;;;;11.80;6.43;;;16.30;74.00;;;;;;5021659;28;20199;-79
2022/01/05 12:12:31;;;;;;;12.83;6.20;;;16.40;74.30;;;;;;5010275;28;20196;-78
2022/01/05 12:15:03;;;;;;;12.07;6.13;;;16.50;74.10;;;;;;5015321;28;20188;-78
2022/01/05 12:17:32;;;;;;;12.23;5.73;;;16.50;73.60;;;;;;5015681;28;20767;-79
2022/01/05 12:20:19;;;;;;;12.47;6.43;;;16.60;73.70;;;;;;5011681;28;20278;-78
2022/01/05 12:22:48;;;;;;;12.10;5.50;;;16.60;72.40;;;;;;5008726;28;20196;-79
2022/01/05 12:25:20;;;;;;;16.37;6.33;;;16.70;72.30;;;;;;5005986;28;20199;-78
2022/01/05 12:28:02;;;;;;;8.23;4.77;;;16.80;72.20;;;;;;5005338;28;20199;-80
2022/01/05 12:30:41;;;;;;;10.90;5.70;;;16.80;71.80;;;;;;5011779;28;20195;-80
2022/01/05 12:33:15;;;;;;;12.97;5.80;;;16.80;71.10;;;;;;5024752;28;20278;-78
2022/01/05 12:35:58;;;;;;;12.50;6.10;;;16.90;71.60;;;;;;5016537;28;20235;-78
2022/01/05 12:38:49;;;;;;;16.13;6.77;;;16.90;71.80;;;;;;5015338;28;20180;-79
2022/01/05 12:41:26;;;;;;;17.90;6.37;;;17.00;71.90;;;;;;5012251;28;20200;-79
2022/01/05 12:43:56;;;;;;;9.93;6.33;;;17.00;71.50;;;;;;5023026;28;20198;-78
2022/01/05 12:46:39;;;;;;;11.40;5.83;;;17.00;71.60;;;;;;5017235;28;20207;-79
2022/01/05 12:49:15;;;;;;;12.47;6.03;;;17.00;71.60;;;;;;5013597;28;20188;-80
2022/01/05 12:51:52;;;;;;;14.23;6.77;;;17.00;71.60;;;;;;5013765;28;20199;-79
2022/01/05 12:54:23;;;;;;;12.73;6.73;;;17.00;71.50;;;;;;5017341;28;20202;-78